sensor_id;sensor_type;location;lat;lon;timestamp;P1;durP1;ratioP1;P2;durP2;ratioP2
52494;SDS011;38405;53.212;5.660;2023-05-07T00:01:25;19.75;;;13.18;;
52494;SDS011;38405;53.212;5.660;2023-05-07T00:03:51;16.60;;;13.00;;
52494;SDS011;38405;53.212;5.660;2023-05-07T00:06:16;16.40;;;12.95;;
52494;SDS011;38405;53.212;5.660;2023-05-07T00:08:42;18.20;;;12.73;;
52494;SDS011;38405;53.212;5.660;2023-05-07T00:11:08;17.83;;;13.20;;
52494;SDS011;38405;53.212;5.660;2023-05-07T00:13:33;19.05;;;14.05;;
52494;SDS011;38405;53.212;5.660;2023-05-07T00:16:03;19.25;;;14.73;;
52494;SDS011;38405;53.212;5.660;2023-05-07T00:18:29;19.88;;;14.25;;
52494;SDS011;38405;53.212;5.660;2023-05-07T00:20:55;18.58;;;14.45;;
52494;SDS011;38405;53.212;5.660;2023-05-07T00:23:21;19.52;;;14.10;;
52494;SDS011;38405;53.212;5.660;2023-05-07T00:25:47;19.23;;;13.85;;
52494;SDS011;38405;53.212;5.660;2023-05-07T00:28:13;18.85;;;14.68;;
52494;SDS011;38405;53.212;5.660;2023-05-07T00:30:38;19.98;;;13.98;;
52494;SDS011;38405;53.212;5.660;2023-05-07T00:33:04;20.85;;;14.65;;
52494;SDS011;38405;53.212;5.660;2023-05-07T00:35:30;19.20;;;14.40;;
52494;SDS011;38405;53.212;5.660;2023-05-07T00:37:55;19.63;;;14.60;;
52494;SDS011;38405;53.212;5.660;2023-05-07T00:40:21;19.58;;;14.70;;
52494;SDS011;38405;53.212;5.660;2023-05-07T00:42:47;21.65;;;14.65;;
52494;SDS011;38405;53.212;5.660;2023-05-07T00:45:14;16.55;;;13.88;;
52494;SDS011;38405;53.212;5.660;2023-05-07T00:47:40;23.48;;;15.32;;
52494;SDS011;38405;53.212;5.660;2023-05-07T00:50:06;17.73;;;14.18;;
52494;SDS011;38405;53.212;5.660;2023-05-07T00:52:33;17.77;;;13.73;;
52494;SDS011;38405;53.212;5.660;2023-05-07T00:55:00;22.67;;;14.43;;
52494;SDS011;38405;53.212;5.660;2023-05-07T00:57:32;19.42;;;14.55;;
52494;SDS011;38405;53.212;5.660;2023-05-07T01:00:03;19.40;;;14.05;;
52494;SDS011;38405;53.212;5.660;2023-05-07T01:02:29;20.70;;;14.70;;
52494;SDS011;38405;53.212;5.660;2023-05-07T01:04:55;17.70;;;14.05;;
52494;SDS011;38405;53.212;5.660;2023-05-07T01:07:22;20.35;;;13.48;;
52494;SDS011;38405;53.212;5.660;2023-05-07T01:09:48;17.75;;;13.23;;
52494;SDS011;38405;53.212;5.660;2023-05-07T01:12:14;19.95;;;13.60;;
52494;SDS011;38405;53.212;5.660;2023-05-07T01:14:41;17.77;;;13.25;;
52494;SDS011;38405;53.212;5.660;2023-05-07T01:17:07;17.35;;;13.70;;
52494;SDS011;38405;53.212;5.660;2023-05-07T01:19:33;17.40;;;14.00;;
52494;SDS011;38405;53.212;5.660;2023-05-07T01:22:09;16.23;;;13.27;;
52494;SDS011;38405;53.212;5.660;2023-05-07T01:24:39;18.35;;;13.35;;
52494;SDS011;38405;53.212;5.660;2023-05-07T01:27:06;18.05;;;13.55;;
52494;SDS011;38405;53.212;5.660;2023-05-07T01:29:32;21.38;;;15.70;;
52494;SDS011;38405;53.212;5.660;2023-05-07T01:31:58;18.13;;;13.75;;
52494;SDS011;38405;53.212;5.660;2023-05-07T01:34:25;17.90;;;13.57;;
52494;SDS011;38405;53.212;5.660;2023-05-07T01:36:52;17.73;;;12.95;;
52494;SDS011;38405;53.212;5.660;2023-05-07T01:39:24;17.73;;;14.48;;
52494;SDS011;38405;53.212;5.660;2023-05-07T01:41:50;20.02;;;14.13;;
52494;SDS011;38405;53.212;5.660;2023-05-07T01:44:16;18.65;;;14.43;;
52494;SDS011;38405;53.212;5.660;2023-05-07T01:46:43;17.17;;;13.38;;
52494;SDS011;38405;53.212;5.660;2023-05-07T01:49:09;20.88;;;14.70;;
52494;SDS011;38405;53.212;5.660;2023-05-07T01:51:35;22.30;;;14.27;;
52494;SDS011;38405;53.212;5.660;2023-05-07T01:54:01;18.88;;;13.48;;
52494;SDS011;38405;53.212;5.660;2023-05-07T01:56:27;23.25;;;15.48;;
52494;SDS011;38405;53.212;5.660;2023-05-07T01:58:52;22.10;;;16.13;;
52494;SDS011;38405;53.212;5.660;2023-05-07T02:01:18;16.80;;;12.77;;
52494;SDS011;38405;53.212;5.660;2023-05-07T02:03:44;18.30;;;14.40;;
52494;SDS011;38405;53.212;5.660;2023-05-07T02:06:09;27.02;;;16.17;;
52494;SDS011;38405;53.212;5.660;2023-05-07T02:08:35;22.30;;;15.15;;
52494;SDS011;38405;53.212;5.660;2023-05-07T02:11:01;21.83;;;14.88;;
52494;SDS011;38405;53.212;5.660;2023-05-07T02:13:31;17.15;;;14.10;;
52494;SDS011;38405;53.212;5.660;2023-05-07T02:15:58;17.88;;;14.13;;
52494;SDS011;38405;53.212;5.660;2023-05-07T02:18:24;20.00;;;14.13;;
52494;SDS011;38405;53.212;5.660;2023-05-07T02:20:50;18.00;;;14.23;;
52494;SDS011;38405;53.212;5.660;2023-05-07T02:23:15;24.25;;;17.42;;
52494;SDS011;38405;53.212;5.660;2023-05-07T02:25:41;23.88;;;16.10;;
52494;SDS011;38405;53.212;5.660;2023-05-07T02:28:07;21.55;;;14.70;;
52494;SDS011;38405;53.212;5.660;2023-05-07T02:30:32;33.63;;;21.58;;
52494;SDS011;38405;53.212;5.660;2023-05-07T02:32:58;22.83;;;15.90;;
52494;SDS011;38405;53.212;5.660;2023-05-07T02:35:24;22.17;;;15.95;;
52494;SDS011;38405;53.212;5.660;2023-05-07T02:37:50;23.20;;;17.05;;
52494;SDS011;38405;53.212;5.660;2023-05-07T02:40:16;24.15;;;16.67;;
52494;SDS011;38405;53.212;5.660;2023-05-07T02:42:42;22.67;;;16.63;;
52494;SDS011;38405;53.212;5.660;2023-05-07T02:45:07;23.05;;;16.58;;
52494;SDS011;38405;53.212;5.660;2023-05-07T02:47:34;24.10;;;18.33;;
52494;SDS011;38405;53.212;5.660;2023-05-07T02:49:59;27.63;;;16.63;;
52494;SDS011;38405;53.212;5.660;2023-05-07T02:52:25;28.95;;;18.00;;
52494;SDS011;38405;53.212;5.660;2023-05-07T02:54:51;28.00;;;17.98;;
52494;SDS011;38405;53.212;5.660;2023-05-07T02:57:16;26.70;;;18.70;;
52494;SDS011;38405;53.212;5.660;2023-05-07T02:59:42;25.83;;;18.67;;
52494;SDS011;38405;53.212;5.660;2023-05-07T03:02:08;25.90;;;18.30;;
52494;SDS011;38405;53.212;5.660;2023-05-07T03:04:35;23.42;;;17.80;;
52494;SDS011;38405;53.212;5.660;2023-05-07T03:07:00;22.63;;;17.33;;
52494;SDS011;38405;53.212;5.660;2023-05-07T03:09:26;24.30;;;18.40;;
52494;SDS011;38405;53.212;5.660;2023-05-07T03:11:52;24.48;;;17.02;;
52494;SDS011;38405;53.212;5.660;2023-05-07T03:14:17;26.50;;;17.35;;
52494;SDS011;38405;53.212;5.660;2023-05-07T03:16:43;24.13;;;17.25;;
52494;SDS011;38405;53.212;5.660;2023-05-07T03:19:09;22.38;;;17.60;;
52494;SDS011;38405;53.212;5.660;2023-05-07T03:21:34;24.83;;;18.08;;
52494;SDS011;38405;53.212;5.660;2023-05-07T03:24:00;26.00;;;18.00;;
52494;SDS011;38405;53.212;5.660;2023-05-07T03:26:26;26.10;;;18.65;;
52494;SDS011;38405;53.212;5.660;2023-05-07T03:28:51;26.23;;;18.77;;
52494;SDS011;38405;53.212;5.660;2023-05-07T03:31:17;27.00;;;18.38;;
52494;SDS011;38405;53.212;5.660;2023-05-07T03:33:56;23.38;;;17.67;;
52494;SDS011;38405;53.212;5.660;2023-05-07T03:36:22;28.08;;;19.27;;
52494;SDS011;38405;53.212;5.660;2023-05-07T03:38:49;24.58;;;17.80;;
52494;SDS011;38405;53.212;5.660;2023-05-07T03:41:14;28.98;;;19.10;;
52494;SDS011;38405;53.212;5.660;2023-05-07T03:43:40;25.10;;;18.17;;
52494;SDS011;38405;53.212;5.660;2023-05-07T03:46:06;34.70;;;24.67;;
52494;SDS011;38405;53.212;5.660;2023-05-07T03:48:32;27.25;;;20.85;;
52494;SDS011;38405;53.212;5.660;2023-05-07T03:50:57;24.58;;;19.92;;
52494;SDS011;38405;53.212;5.660;2023-05-07T03:53:24;28.23;;;21.08;;
52494;SDS011;38405;53.212;5.660;2023-05-07T03:55:50;25.60;;;19.52;;
52494;SDS011;38405;53.212;5.660;2023-05-07T03:58:15;29.60;;;21.52;;
52494;SDS011;38405;53.212;5.660;2023-05-07T04:00:41;36.13;;;21.95;;
52494;SDS011;38405;53.212;5.660;2023-05-07T04:03:07;27.08;;;20.02;;
52494;SDS011;38405;53.212;5.660;2023-05-07T04:05:33;26.67;;;19.90;;
52494;SDS011;38405;53.212;5.660;2023-05-07T04:07:58;26.67;;;20.70;;
52494;SDS011;38405;53.212;5.660;2023-05-07T04:10:24;33.78;;;22.75;;
52494;SDS011;38405;53.212;5.660;2023-05-07T04:12:50;30.13;;;21.35;;
52494;SDS011;38405;53.212;5.660;2023-05-07T04:15:16;29.58;;;21.10;;
52494;SDS011;38405;53.212;5.660;2023-05-07T04:17:41;27.65;;;21.63;;
52494;SDS011;38405;53.212;5.660;2023-05-07T04:20:14;34.85;;;22.70;;
52494;SDS011;38405;53.212;5.660;2023-05-07T04:22:41;31.55;;;22.85;;
52494;SDS011;38405;53.212;5.660;2023-05-07T04:25:07;36.50;;;23.40;;
52494;SDS011;38405;53.212;5.660;2023-05-07T04:27:36;28.55;;;20.80;;
52494;SDS011;38405;53.212;5.660;2023-05-07T04:30:02;25.63;;;19.63;;
52494;SDS011;38405;53.212;5.660;2023-05-07T04:32:29;29.10;;;20.52;;
52494;SDS011;38405;53.212;5.660;2023-05-07T04:34:55;29.17;;;22.08;;
52494;SDS011;38405;53.212;5.660;2023-05-07T04:37:21;31.20;;;21.45;;
52494;SDS011;38405;53.212;5.660;2023-05-07T04:39:47;30.90;;;20.65;;
52494;SDS011;38405;53.212;5.660;2023-05-07T04:42:16;29.05;;;20.90;;
52494;SDS011;38405;53.212;5.660;2023-05-07T04:44:43;32.50;;;22.70;;
52494;SDS011;38405;53.212;5.660;2023-05-07T04:47:10;29.45;;;21.25;;
52494;SDS011;38405;53.212;5.660;2023-05-07T04:49:36;31.13;;;22.83;;
52494;SDS011;38405;53.212;5.660;2023-05-07T04:52:02;32.80;;;22.88;;
52494;SDS011;38405;53.212;5.660;2023-05-07T04:54:29;29.45;;;21.13;;
52494;SDS011;38405;53.212;5.660;2023-05-07T04:56:55;29.17;;;21.58;;
52494;SDS011;38405;53.212;5.660;2023-05-07T04:59:20;28.95;;;19.88;;
52494;SDS011;38405;53.212;5.660;2023-05-07T05:01:46;32.63;;;23.02;;
52494;SDS011;38405;53.212;5.660;2023-05-07T05:04:12;34.70;;;23.80;;
52494;SDS011;38405;53.212;5.660;2023-05-07T05:06:38;35.70;;;23.83;;
52494;SDS011;38405;53.212;5.660;2023-05-07T05:09:04;34.63;;;24.58;;
52494;SDS011;38405;53.212;5.660;2023-05-07T05:11:30;33.42;;;22.85;;
52494;SDS011;38405;53.212;5.660;2023-05-07T05:13:56;32.35;;;23.73;;
52494;SDS011;38405;53.212;5.660;2023-05-07T05:16:22;33.00;;;22.70;;
52494;SDS011;38405;53.212;5.660;2023-05-07T05:18:47;32.80;;;23.10;;
52494;SDS011;38405;53.212;5.660;2023-05-07T05:21:13;30.48;;;22.30;;
52494;SDS011;38405;53.212;5.660;2023-05-07T05:23:39;33.42;;;23.60;;
52494;SDS011;38405;53.212;5.660;2023-05-07T05:26:04;34.67;;;25.20;;
52494;SDS011;38405;53.212;5.660;2023-05-07T05:28:30;34.92;;;24.05;;
52494;SDS011;38405;53.212;5.660;2023-05-07T05:30:56;40.17;;;25.70;;
52494;SDS011;38405;53.212;5.660;2023-05-07T05:33:21;32.85;;;24.17;;
52494;SDS011;38405;53.212;5.660;2023-05-07T05:35:47;38.70;;;26.65;;
52494;SDS011;38405;53.212;5.660;2023-05-07T05:38:13;34.00;;;24.90;;
52494;SDS011;38405;53.212;5.660;2023-05-07T05:40:38;36.00;;;25.42;;
52494;SDS011;38405;53.212;5.660;2023-05-07T05:43:04;32.05;;;24.08;;
52494;SDS011;38405;53.212;5.660;2023-05-07T05:45:30;35.33;;;24.30;;
52494;SDS011;38405;53.212;5.660;2023-05-07T05:47:56;42.63;;;26.05;;
52494;SDS011;38405;53.212;5.660;2023-05-07T05:50:22;38.15;;;25.23;;
52494;SDS011;38405;53.212;5.660;2023-05-07T05:52:48;35.70;;;25.42;;
52494;SDS011;38405;53.212;5.660;2023-05-07T05:55:14;37.05;;;26.63;;
52494;SDS011;38405;53.212;5.660;2023-05-07T05:57:39;40.92;;;25.75;;
52494;SDS011;38405;53.212;5.660;2023-05-07T06:00:06;41.92;;;27.52;;
52494;SDS011;38405;53.212;5.660;2023-05-07T06:02:32;46.28;;;29.35;;
52494;SDS011;38405;53.212;5.660;2023-05-07T06:04:58;39.28;;;27.27;;
52494;SDS011;38405;53.212;5.660;2023-05-07T06:07:24;38.08;;;26.08;;
52494;SDS011;38405;53.212;5.660;2023-05-07T06:09:50;37.47;;;25.52;;
52494;SDS011;38405;53.212;5.660;2023-05-07T06:12:15;38.45;;;26.50;;
52494;SDS011;38405;53.212;5.660;2023-05-07T06:14:44;41.75;;;27.17;;
52494;SDS011;38405;53.212;5.660;2023-05-07T06:17:09;42.25;;;27.48;;
52494;SDS011;38405;53.212;5.660;2023-05-07T06:19:35;42.17;;;27.50;;
52494;SDS011;38405;53.212;5.660;2023-05-07T06:22:01;45.03;;;29.33;;
52494;SDS011;38405;53.212;5.660;2023-05-07T06:24:27;43.35;;;29.55;;
52494;SDS011;38405;53.212;5.660;2023-05-07T06:26:53;36.25;;;24.83;;
52494;SDS011;38405;53.212;5.660;2023-05-07T06:29:19;37.78;;;26.00;;
52494;SDS011;38405;53.212;5.660;2023-05-07T06:31:44;38.38;;;25.15;;
52494;SDS011;38405;53.212;5.660;2023-05-07T06:34:10;35.60;;;24.15;;
52494;SDS011;38405;53.212;5.660;2023-05-07T06:36:39;40.97;;;27.08;;
52494;SDS011;38405;53.212;5.660;2023-05-07T06:39:05;34.33;;;23.95;;
52494;SDS011;38405;53.212;5.660;2023-05-07T06:41:31;41.67;;;27.58;;
52494;SDS011;38405;53.212;5.660;2023-05-07T06:43:56;37.08;;;25.75;;
52494;SDS011;38405;53.212;5.660;2023-05-07T06:46:22;37.60;;;24.45;;
52494;SDS011;38405;53.212;5.660;2023-05-07T06:48:47;37.05;;;26.92;;
52494;SDS011;38405;53.212;5.660;2023-05-07T06:51:13;35.35;;;23.98;;
52494;SDS011;38405;53.212;5.660;2023-05-07T06:53:39;35.63;;;23.27;;
52494;SDS011;38405;53.212;5.660;2023-05-07T06:56:05;35.25;;;25.27;;
52494;SDS011;38405;53.212;5.660;2023-05-07T06:58:31;31.05;;;22.35;;
52494;SDS011;38405;53.212;5.660;2023-05-07T07:00:56;32.75;;;22.70;;
52494;SDS011;38405;53.212;5.660;2023-05-07T07:03:22;29.92;;;22.05;;
52494;SDS011;38405;53.212;5.660;2023-05-07T07:05:50;33.17;;;24.70;;
52494;SDS011;38405;53.212;5.660;2023-05-07T07:08:17;30.52;;;21.55;;
52494;SDS011;38405;53.212;5.660;2023-05-07T07:10:43;30.30;;;22.65;;
52494;SDS011;38405;53.212;5.660;2023-05-07T07:13:08;34.97;;;24.75;;
52494;SDS011;38405;53.212;5.660;2023-05-07T07:15:34;34.83;;;25.27;;
52494;SDS011;38405;53.212;5.660;2023-05-07T07:17:59;29.15;;;22.00;;
52494;SDS011;38405;53.212;5.660;2023-05-07T07:20:25;31.52;;;21.10;;
52494;SDS011;38405;53.212;5.660;2023-05-07T07:22:51;34.35;;;24.15;;
52494;SDS011;38405;53.212;5.660;2023-05-07T07:25:17;31.35;;;22.05;;
52494;SDS011;38405;53.212;5.660;2023-05-07T07:27:42;32.00;;;23.67;;
52494;SDS011;38405;53.212;5.660;2023-05-07T07:30:08;38.67;;;24.27;;
52494;SDS011;38405;53.212;5.660;2023-05-07T07:32:34;30.27;;;21.80;;
52494;SDS011;38405;53.212;5.660;2023-05-07T07:34:59;30.20;;;22.85;;
52494;SDS011;38405;53.212;5.660;2023-05-07T07:37:25;32.97;;;23.77;;
52494;SDS011;38405;53.212;5.660;2023-05-07T07:39:51;29.02;;;22.10;;
52494;SDS011;38405;53.212;5.660;2023-05-07T07:42:16;27.67;;;21.75;;
52494;SDS011;38405;53.212;5.660;2023-05-07T07:44:43;27.65;;;20.77;;
52494;SDS011;38405;53.212;5.660;2023-05-07T07:47:09;26.00;;;20.23;;
52494;SDS011;38405;53.212;5.660;2023-05-07T07:49:35;27.17;;;20.75;;
52494;SDS011;38405;53.212;5.660;2023-05-07T07:52:01;27.02;;;20.35;;
52494;SDS011;38405;53.212;5.660;2023-05-07T07:54:26;26.25;;;19.83;;
52494;SDS011;38405;53.212;5.660;2023-05-07T07:56:52;25.38;;;19.70;;
52494;SDS011;38405;53.212;5.660;2023-05-07T07:59:18;27.35;;;18.85;;
52494;SDS011;38405;53.212;5.660;2023-05-07T08:01:44;23.98;;;18.63;;
52494;SDS011;38405;53.212;5.660;2023-05-07T08:04:10;25.20;;;19.52;;
52494;SDS011;38405;53.212;5.660;2023-05-07T08:06:36;25.38;;;19.90;;
52494;SDS011;38405;53.212;5.660;2023-05-07T08:09:01;29.67;;;19.77;;
52494;SDS011;38405;53.212;5.660;2023-05-07T08:11:27;25.65;;;19.25;;
52494;SDS011;38405;53.212;5.660;2023-05-07T08:13:53;24.15;;;18.80;;
52494;SDS011;38405;53.212;5.660;2023-05-07T08:16:20;25.70;;;19.48;;
52494;SDS011;38405;53.212;5.660;2023-05-07T08:18:45;25.73;;;19.52;;
52494;SDS011;38405;53.212;5.660;2023-05-07T08:21:11;31.92;;;19.02;;
52494;SDS011;38405;53.212;5.660;2023-05-07T08:23:39;22.35;;;17.80;;
52494;SDS011;38405;53.212;5.660;2023-05-07T08:26:05;25.70;;;19.63;;
52494;SDS011;38405;53.212;5.660;2023-05-07T08:28:32;24.33;;;18.17;;
52494;SDS011;38405;53.212;5.660;2023-05-07T08:30:58;22.38;;;18.23;;
52494;SDS011;38405;53.212;5.660;2023-05-07T08:33:25;21.90;;;18.60;;
52494;SDS011;38405;53.212;5.660;2023-05-07T08:35:51;22.05;;;17.33;;
52494;SDS011;38405;53.212;5.660;2023-05-07T08:38:17;24.00;;;18.30;;
52494;SDS011;38405;53.212;5.660;2023-05-07T08:40:42;22.98;;;18.17;;
52494;SDS011;38405;53.212;5.660;2023-05-07T08:43:08;23.45;;;17.15;;
52494;SDS011;38405;53.212;5.660;2023-05-07T08:45:39;23.45;;;17.40;;
52494;SDS011;38405;53.212;5.660;2023-05-07T08:48:08;19.77;;;16.08;;
52494;SDS011;38405;53.212;5.660;2023-05-07T08:50:39;20.45;;;16.80;;
52494;SDS011;38405;53.212;5.660;2023-05-07T08:53:05;22.80;;;16.55;;
52494;SDS011;38405;53.212;5.660;2023-05-07T08:55:31;18.40;;;15.90;;
52494;SDS011;38405;53.212;5.660;2023-05-07T08:57:58;22.58;;;17.38;;
52494;SDS011;38405;53.212;5.660;2023-05-07T09:00:24;20.15;;;17.33;;
52494;SDS011;38405;53.212;5.660;2023-05-07T09:02:50;21.38;;;16.48;;
52494;SDS011;38405;53.212;5.660;2023-05-07T09:05:15;20.92;;;17.15;;
52494;SDS011;38405;53.212;5.660;2023-05-07T09:07:41;20.42;;;16.27;;
52494;SDS011;38405;53.212;5.660;2023-05-07T09:10:07;20.20;;;15.20;;
52494;SDS011;38405;53.212;5.660;2023-05-07T09:12:33;19.33;;;16.20;;
52494;SDS011;38405;53.212;5.660;2023-05-07T09:15:00;18.23;;;16.13;;
52494;SDS011;38405;53.212;5.660;2023-05-07T09:17:27;18.63;;;15.68;;
52494;SDS011;38405;53.212;5.660;2023-05-07T09:19:53;17.90;;;15.85;;
52494;SDS011;38405;53.212;5.660;2023-05-07T09:22:19;19.75;;;16.98;;
52494;SDS011;38405;53.212;5.660;2023-05-07T09:24:48;19.20;;;16.10;;
52494;SDS011;38405;53.212;5.660;2023-05-07T09:27:14;19.02;;;15.90;;
52494;SDS011;38405;53.212;5.660;2023-05-07T09:29:40;19.55;;;16.80;;
52494;SDS011;38405;53.212;5.660;2023-05-07T09:32:07;19.77;;;16.25;;
52494;SDS011;38405;53.212;5.660;2023-05-07T09:34:33;19.83;;;15.93;;
52494;SDS011;38405;53.212;5.660;2023-05-07T09:37:03;19.73;;;17.00;;
52494;SDS011;38405;53.212;5.660;2023-05-07T09:39:48;19.60;;;16.13;;
52494;SDS011;38405;53.212;5.660;2023-05-07T09:42:15;20.73;;;16.17;;
52494;SDS011;38405;53.212;5.660;2023-05-07T09:44:40;18.45;;;16.48;;
52494;SDS011;38405;53.212;5.660;2023-05-07T09:47:08;20.50;;;16.02;;
52494;SDS011;38405;53.212;5.660;2023-05-07T09:49:35;21.77;;;16.05;;
52494;SDS011;38405;53.212;5.660;2023-05-07T09:52:04;23.70;;;16.10;;
52494;SDS011;38405;53.212;5.660;2023-05-07T09:54:33;19.98;;;16.50;;
52494;SDS011;38405;53.212;5.660;2023-05-07T09:57:03;18.98;;;15.52;;
52494;SDS011;38405;53.212;5.660;2023-05-07T09:59:31;20.70;;;17.05;;
52494;SDS011;38405;53.212;5.660;2023-05-07T10:01:58;21.02;;;17.05;;
52494;SDS011;38405;53.212;5.660;2023-05-07T10:04:25;18.95;;;16.00;;
52494;SDS011;38405;53.212;5.660;2023-05-07T10:06:51;21.08;;;16.75;;
52494;SDS011;38405;53.212;5.660;2023-05-07T10:09:18;21.77;;;16.50;;
52494;SDS011;38405;53.212;5.660;2023-05-07T10:11:44;20.10;;;16.65;;
52494;SDS011;38405;53.212;5.660;2023-05-07T10:14:12;18.73;;;16.02;;
52494;SDS011;38405;53.212;5.660;2023-05-07T10:16:38;20.17;;;16.13;;
52494;SDS011;38405;53.212;5.660;2023-05-07T10:19:04;18.95;;;15.55;;
52494;SDS011;38405;53.212;5.660;2023-05-07T10:21:35;21.30;;;17.02;;
52494;SDS011;38405;53.212;5.660;2023-05-07T10:26:38;20.52;;;16.38;;
52494;SDS011;38405;53.212;5.660;2023-05-07T10:29:10;21.27;;;17.23;;
52494;SDS011;38405;53.212;5.660;2023-05-07T10:31:54;18.80;;;16.27;;
52494;SDS011;38405;53.212;5.660;2023-05-07T10:34:26;24.00;;;18.95;;
52494;SDS011;38405;53.212;5.660;2023-05-07T10:36:57;18.95;;;16.25;;
52494;SDS011;38405;53.212;5.660;2023-05-07T10:39:23;21.25;;;17.38;;
52494;SDS011;38405;53.212;5.660;2023-05-07T10:41:49;20.38;;;17.17;;
52494;SDS011;38405;53.212;5.660;2023-05-07T10:44:24;20.20;;;17.00;;
52494;SDS011;38405;53.212;5.660;2023-05-07T10:47:25;18.35;;;15.80;;
52494;SDS011;38405;53.212;5.660;2023-05-07T10:54:46;19.13;;;17.05;;
52494;SDS011;38405;53.212;5.660;2023-05-07T10:57:32;19.83;;;15.63;;
52494;SDS011;38405;53.212;5.660;2023-05-07T11:00:00;19.85;;;16.52;;
52494;SDS011;38405;53.212;5.660;2023-05-07T11:05:31;23.30;;;17.27;;
52494;SDS011;38405;53.212;5.660;2023-05-07T11:08:01;21.63;;;17.48;;
52494;SDS011;38405;53.212;5.660;2023-05-07T11:13:16;20.65;;;16.27;;
52494;SDS011;38405;53.212;5.660;2023-05-07T11:15:43;17.73;;;15.77;;
52494;SDS011;38405;53.212;5.660;2023-05-07T11:18:16;21.02;;;16.50;;
52494;SDS011;38405;53.212;5.660;2023-05-07T11:20:58;18.85;;;15.55;;
52494;SDS011;38405;53.212;5.660;2023-05-07T11:25:59;19.92;;;17.20;;
52494;SDS011;38405;53.212;5.660;2023-05-07T11:28:29;20.58;;;17.17;;
52494;SDS011;38405;53.212;5.660;2023-05-07T11:30:56;21.33;;;16.52;;
52494;SDS011;38405;53.212;5.660;2023-05-07T11:33:23;18.58;;;15.55;;
52494;SDS011;38405;53.212;5.660;2023-05-07T11:35:54;18.70;;;15.48;;
52494;SDS011;38405;53.212;5.660;2023-05-07T11:38:21;20.30;;;16.00;;
52494;SDS011;38405;53.212;5.660;2023-05-07T11:43:19;19.83;;;16.40;;
52494;SDS011;38405;53.212;5.660;2023-05-07T11:45:45;19.42;;;15.90;;
52494;SDS011;38405;53.212;5.660;2023-05-07T11:48:12;19.67;;;15.35;;
52494;SDS011;38405;53.212;5.660;2023-05-07T11:53:27;18.02;;;15.57;;
52494;SDS011;38405;53.212;5.660;2023-05-07T11:55:59;23.45;;;17.42;;
52494;SDS011;38405;53.212;5.660;2023-05-07T11:58:25;20.35;;;16.85;;
52494;SDS011;38405;53.212;5.660;2023-05-07T12:00:52;19.30;;;16.63;;
52494;SDS011;38405;53.212;5.660;2023-05-07T12:03:19;22.15;;;17.65;;
52494;SDS011;38405;53.212;5.660;2023-05-07T12:05:48;21.05;;;17.00;;
52494;SDS011;38405;53.212;5.660;2023-05-07T12:08:14;19.00;;;16.08;;
52494;SDS011;38405;53.212;5.660;2023-05-07T12:10:41;21.42;;;16.92;;
52494;SDS011;38405;53.212;5.660;2023-05-07T12:13:14;21.23;;;18.27;;
52494;SDS011;38405;53.212;5.660;2023-05-07T12:15:40;21.98;;;17.48;;
52494;SDS011;38405;53.212;5.660;2023-05-07T12:18:05;20.60;;;16.27;;
52494;SDS011;38405;53.212;5.660;2023-05-07T12:20:32;19.02;;;15.65;;
52494;SDS011;38405;53.212;5.660;2023-05-07T12:22:59;21.27;;;16.83;;
52494;SDS011;38405;53.212;5.660;2023-05-07T12:25:29;19.33;;;16.13;;
52494;SDS011;38405;53.212;5.660;2023-05-07T12:27:56;18.73;;;15.90;;
52494;SDS011;38405;53.212;5.660;2023-05-07T12:30:23;19.30;;;16.33;;
52494;SDS011;38405;53.212;5.660;2023-05-07T12:32:52;16.60;;;14.80;;
52494;SDS011;38405;53.212;5.660;2023-05-07T12:35:30;18.33;;;14.55;;
52494;SDS011;38405;53.212;5.660;2023-05-07T12:37:58;18.02;;;15.05;;
52494;SDS011;38405;53.212;5.660;2023-05-07T12:40:34;17.13;;;14.23;;
52494;SDS011;38405;53.212;5.660;2023-05-07T12:43:07;17.70;;;15.27;;
52494;SDS011;38405;53.212;5.660;2023-05-07T12:45:41;19.17;;;15.43;;
52494;SDS011;38405;53.212;5.660;2023-05-07T12:48:06;18.65;;;15.57;;
52494;SDS011;38405;53.212;5.660;2023-05-07T12:50:35;17.70;;;15.13;;
52494;SDS011;38405;53.212;5.660;2023-05-07T12:53:03;17.27;;;15.35;;
52494;SDS011;38405;53.212;5.660;2023-05-07T12:55:40;20.10;;;16.08;;
52494;SDS011;38405;53.212;5.660;2023-05-07T12:58:07;18.77;;;16.13;;
52494;SDS011;38405;53.212;5.660;2023-05-07T13:00:34;18.02;;;15.13;;
52494;SDS011;38405;53.212;5.660;2023-05-07T13:03:03;17.73;;;14.60;;
52494;SDS011;38405;53.212;5.660;2023-05-07T13:05:30;17.92;;;14.68;;
52494;SDS011;38405;53.212;5.660;2023-05-07T13:07:56;18.58;;;14.20;;
52494;SDS011;38405;53.212;5.660;2023-05-07T13:10:22;17.25;;;14.13;;
52494;SDS011;38405;53.212;5.660;2023-05-07T13:12:48;18.00;;;15.10;;
52494;SDS011;38405;53.212;5.660;2023-05-07T13:15:14;17.08;;;14.88;;
52494;SDS011;38405;53.212;5.660;2023-05-07T13:17:40;16.23;;;14.50;;
52494;SDS011;38405;53.212;5.660;2023-05-07T13:20:06;17.30;;;14.73;;
52494;SDS011;38405;53.212;5.660;2023-05-07T13:22:34;16.95;;;15.15;;
52494;SDS011;38405;53.212;5.660;2023-05-07T13:24:59;17.65;;;13.98;;
52494;SDS011;38405;53.212;5.660;2023-05-07T13:27:25;18.08;;;14.77;;
52494;SDS011;38405;53.212;5.660;2023-05-07T13:29:51;21.45;;;14.43;;
52494;SDS011;38405;53.212;5.660;2023-05-07T13:32:17;15.23;;;13.38;;
52494;SDS011;38405;53.212;5.660;2023-05-07T13:34:42;16.73;;;13.45;;
52494;SDS011;38405;53.212;5.660;2023-05-07T13:37:08;15.23;;;12.65;;
52494;SDS011;38405;53.212;5.660;2023-05-07T13:39:34;14.95;;;13.35;;
52494;SDS011;38405;53.212;5.660;2023-05-07T13:41:59;19.08;;;14.63;;
52494;SDS011;38405;53.212;5.660;2023-05-07T13:44:26;16.52;;;13.98;;
52494;SDS011;38405;53.212;5.660;2023-05-07T13:46:51;13.68;;;12.00;;
52494;SDS011;38405;53.212;5.660;2023-05-07T13:49:17;14.07;;;12.57;;
52494;SDS011;38405;53.212;5.660;2023-05-07T13:51:43;16.23;;;14.05;;
52494;SDS011;38405;53.212;5.660;2023-05-07T13:54:08;15.75;;;14.15;;
52494;SDS011;38405;53.212;5.660;2023-05-07T13:56:34;15.27;;;13.68;;
52494;SDS011;38405;53.212;5.660;2023-05-07T13:59:00;19.65;;;13.93;;
52494;SDS011;38405;53.212;5.660;2023-05-07T14:01:26;19.45;;;13.00;;
52494;SDS011;38405;53.212;5.660;2023-05-07T14:03:52;15.40;;;13.80;;
52494;SDS011;38405;53.212;5.660;2023-05-07T14:06:17;14.48;;;13.00;;
52494;SDS011;38405;53.212;5.660;2023-05-07T14:08:43;14.63;;;13.02;;
52494;SDS011;38405;53.212;5.660;2023-05-07T14:11:09;15.18;;;13.35;;
52494;SDS011;38405;53.212;5.660;2023-05-07T14:13:34;16.55;;;12.80;;
52494;SDS011;38405;53.212;5.660;2023-05-07T14:16:00;14.52;;;12.75;;
52494;SDS011;38405;53.212;5.660;2023-05-07T14:18:26;15.27;;;13.38;;
52494;SDS011;38405;53.212;5.660;2023-05-07T14:20:53;14.68;;;13.10;;
52494;SDS011;38405;53.212;5.660;2023-05-07T14:23:19;15.90;;;13.25;;
52494;SDS011;38405;53.212;5.660;2023-05-07T14:25:47;17.38;;;13.95;;
52494;SDS011;38405;53.212;5.660;2023-05-07T14:28:12;14.63;;;13.05;;
52494;SDS011;38405;53.212;5.660;2023-05-07T14:30:38;14.77;;;13.27;;
52494;SDS011;38405;53.212;5.660;2023-05-07T14:33:04;15.48;;;13.88;;
52494;SDS011;38405;53.212;5.660;2023-05-07T14:35:29;14.50;;;13.00;;
52494;SDS011;38405;53.212;5.660;2023-05-07T14:37:55;19.02;;;13.68;;
52494;SDS011;38405;53.212;5.660;2023-05-07T14:40:21;14.32;;;12.82;;